This is the latest recevied weather packets stored in our database for station/object HS1IFU-13. If no packets are shown the sender has not sent any weather packets the latest 10 day(s).
| Time | Temp. | Humidity | Pressure | Rain* | Wind** | Luminosity | Snow |
|---|---|---|---|---|---|---|---|
| 1788162474 | 72° F | 63% | 755.3 mmHg | - | - | 0 W/m² | - |
| 1788162133 | 72° F | 60% | 755.3 mmHg | - | - | 0 W/m² | - |
| 1788161832 | 73° F | 60% | 755.3 mmHg | - | - | 0 W/m² | - |
| 1788161674 | 73° F | 60% | 755.3 mmHg | - | - | 0 W/m² | - |
| 1788161403 | 74° F | 59% | 755.3 mmHg | - | - | 0 W/m² | - |
| 1788160913 | 75° F | 60% | 755.3 mmHg | - | - | 0 W/m² | - |
| 1788160705 | 76° F | 60% | 755.3 mmHg | - | - | 0 W/m² | - |
| 1788160485 | 77° F | 60% | 755.3 mmHg | - | - | 0 W/m² | - |
| 1788160113 | 79° F | 60% | 755.3 mmHg | - | - | 0 W/m² | - |
| 1788159471 | 86° F | 66% | 755.3 mmHg | - | - | 0 W/m² | - |
| 1788159254 | 89° F | 74% | 755.3 mmHg | - | - | 0 W/m² | - |
| 1788159051 | 91° F | 83% | 755.3 mmHg | - | - | 0 W/m² | - |
| 1787849363 | 69° F | 55% | 756.8 mmHg | - | - | 0 W/m² | - |
| 1787849077 | 69° F | 55% | 756.8 mmHg | - | - | 0 W/m² | - |
| 1787848547 | 69° F | 54% | 756.8 mmHg | - | - | 0 W/m² | - |
| 1787848259 | 69° F | 54% | 756.8 mmHg | - | - | 0 W/m² | - |
| 1787847862 | 70° F | 55% | 756.8 mmHg | - | - | 0 W/m² | - |
| 1787847155 | 70° F | 54% | 756.8 mmHg | - | - | 0 W/m² | - |
| 1787846764 | 70° F | 55% | 756.8 mmHg | - | - | 0 W/m² | - |
| 1787846334 | 70° F | 55% | 756.8 mmHg | - | - | 0 W/m² | - |
| 1787845977 | 70° F | 55% | 756.8 mmHg | - | - | 0 W/m² | - |
| 1787845598 | 71° F | 54% | 756.8 mmHg | - | - | 0 W/m² | - |
| 1787845437 | 71° F | 54% | 756.8 mmHg | - | - | 0 W/m² | - |
| 1787845263 | 71° F | 54% | 756.8 mmHg | - | - | 0 W/m² | - |
| 1787845042 | 71° F | 54% | 756.8 mmHg | - | - | 0 W/m² | - |
* Rain since midnight (hover to see other rain measurements)
** Current wind speed in m/s (hover to see current wind gust speed)